Time;durP1;ratioP1;P1;durP2;ratioP2;P2;SDS_P1;SDS_P2;PMS_P1;PMS_P2;Temp;Humidity;BMP_temperature;BMP_pressure;BME280_temperature;BME280_humidity;BME280_pressure;Samples;Min_cycle;Max_cycle;Signal;HPM_P1;HPM_P2
2022/04/15 00:00:38;;;;;;;8.45;5.05;;;20.40;72.50;;;;;;5041796;28;20044;-61
2022/04/15 00:03:05;;;;;;;10.50;5.10;;;20.40;72.70;;;;;;5045022;28;20036;-62
2022/04/15 00:05:37;;;;;;;6.45;4.60;;;20.40;72.80;;;;;;5045126;28;20036;-60
2022/04/15 00:08:05;;;;;;;9.70;5.10;;;20.30;72.70;;;;;;5046887;28;20028;-61
2022/04/15 00:10:32;;;;;;;9.93;4.80;;;20.30;72.80;;;;;;5063589;28;20032;-61
2022/04/15 00:12:58;;;;;;;7.25;4.75;;;20.30;72.90;;;;;;5064350;28;20068;-61
2022/04/15 00:15:24;;;;;;;6.78;4.85;;;20.20;72.90;;;;;;5060713;28;20059;-61
2022/04/15 00:17:50;;;;;;;10.98;4.90;;;20.20;73.00;;;;;;5047171;28;20029;-62
2022/04/15 00:20:15;;;;;;;9.48;4.70;;;20.20;73.10;;;;;;5064168;28;20095;-60
2022/04/15 00:22:41;;;;;;;7.38;4.47;;;20.10;73.10;;;;;;5065404;28;20485;-61
2022/04/15 00:25:07;;;;;;;8.75;5.07;;;20.10;73.20;;;;;;5047375;28;20505;-60
2022/04/15 00:27:34;;;;;;;11.82;4.78;;;20.10;73.30;;;;;;5047184;28;20044;-61
2022/04/15 00:29:59;;;;;;;7.22;4.80;;;20.10;73.30;;;;;;5046169;28;20028;-61
2022/04/15 00:32:26;;;;;;;9.82;5.05;;;20.10;73.40;;;;;;5058168;28;20097;-61
2022/04/15 00:34:52;;;;;;;8.55;4.57;;;20.10;73.50;;;;;;5057389;28;20264;-62
2022/04/15 00:37:18;;;;;;;9.43;5.45;;;20.00;73.50;;;;;;5084385;28;20043;-60
2022/04/15 00:39:45;;;;;;;6.10;4.40;;;20.00;73.60;;;;;;5082307;28;20028;-61
2022/04/15 00:42:11;;;;;;;11.40;4.80;;;20.00;73.60;;;;;;5082473;28;20024;-61
2022/04/15 00:44:37;;;;;;;10.88;5.15;;;20.00;73.60;;;;;;5061352;28;20079;-61
2022/04/15 00:47:40;;;;;;;10.60;5.20;;;19.90;73.60;;;;;;5084436;28;20051;-61
2022/04/15 00:50:06;;;;;;;7.47;4.47;;;19.90;73.60;;;;;;5045175;28;20047;-61
2022/04/15 00:52:34;;;;;;;6.90;4.47;;;19.90;73.60;;;;;;5084616;28;20042;-61
2022/04/15 00:55:02;;;;;;;8.90;4.57;;;19.90;73.60;;;;;;5064678;28;20590;-61
2022/04/15 00:57:27;;;;;;;7.03;5.05;;;19.90;73.70;;;;;;5083259;28;20036;-61
2022/04/15 00:59:53;;;;;;;8.27;4.82;;;19.80;73.70;;;;;;5046631;28;20411;-60
2022/04/15 01:02:18;;;;;;;10.13;4.93;;;19.90;73.80;;;;;;5065599;28;20043;-61
2022/04/15 01:04:44;;;;;;;6.80;4.60;;;19.80;73.80;;;;;;5065049;28;20036;-61
2022/04/15 01:07:10;;;;;;;12.18;4.72;;;19.80;73.80;;;;;;5066041;28;20038;-62
2022/04/15 01:09:42;;;;;;;7.95;4.70;;;19.80;73.90;;;;;;5084389;28;20084;-62
2022/04/15 01:12:09;;;;;;;8.38;4.78;;;19.80;73.90;;;;;;5067230;28;20028;-61
2022/04/15 01:14:35;;;;;;;7.20;4.53;;;19.70;73.90;;;;;;5067857;28;20024;-61
2022/04/15 01:17:01;;;;;;;9.32;4.80;;;19.80;74.00;;;;;;5063144;28;20383;-61
2022/04/15 01:19:26;;;;;;;10.13;4.82;;;19.70;74.10;;;;;;5049095;28;20047;-61
2022/04/15 01:21:53;;;;;;;6.95;5.07;;;19.70;74.20;;;;;;5081827;28;20036;-62
2022/04/15 01:24:19;;;;;;;7.45;4.70;;;19.60;74.90;;;;;;5047682;28;20089;-61
2022/04/15 01:26:44;;;;;;;6.65;4.50;;;19.60;74.40;;;;;;5082290;28;20798;-61
2022/04/15 01:29:10;;;;;;;8.38;4.97;;;19.60;74.40;;;;;;5045552;28;20031;-61
2022/04/15 01:31:35;;;;;;;9.50;5.30;;;19.60;74.50;;;;;;5075940;28;20048;-61
2022/04/15 01:34:01;;;;;;;5.38;4.85;;;19.60;74.50;;;;;;5049711;28;20032;-61
2022/04/15 01:36:26;;;;;;;6.75;4.45;;;19.60;74.60;;;;;;5048249;28;20032;-61
2022/04/15 01:38:54;;;;;;;8.77;4.80;;;19.60;74.70;;;;;;5058938;28;20143;-60
2022/04/15 01:41:21;;;;;;;7.88;5.13;;;19.50;74.70;;;;;;5080667;28;20471;-62
2022/04/15 01:43:46;;;;;;;9.90;4.80;;;19.50;74.80;;;;;;5077622;28;20519;-60
2022/04/15 01:46:12;;;;;;;8.13;4.78;;;19.50;74.90;;;;;;5056173;28;20119;-60
2022/04/15 01:48:37;;;;;;;8.38;4.82;;;19.50;75.00;;;;;;5079976;28;20040;-61
2022/04/15 01:51:03;;;;;;;7.38;4.65;;;19.50;75.00;;;;;;5082322;28;20130;-61
2022/04/15 01:53:28;;;;;;;7.70;5.32;;;19.50;75.10;;;;;;5082782;28;20032;-60
2022/04/15 01:55:54;;;;;;;7.57;4.45;;;19.40;75.10;;;;;;5064710;28;20040;-61
2022/04/15 01:58:19;;;;;;;11.20;5.18;;;19.40;75.10;;;;;;5066164;28;20490;-61
2022/04/15 02:00:45;;;;;;;8.10;4.68;;;19.40;75.10;;;;;;5064344;28;20091;-61
2022/04/15 02:03:10;;;;;;;10.05;5.32;;;19.40;75.20;;;;;;5064664;28;20028;-61
2022/04/15 02:05:36;;;;;;;7.65;4.93;;;19.30;75.20;;;;;;5082123;28;20024;-61
2022/04/15 02:08:01;;;;;;;6.20;4.95;;;19.30;75.20;;;;;;5063742;28;20067;-61
2022/04/15 02:10:27;;;;;;;8.00;4.50;;;19.30;75.30;;;;;;5077158;28;20462;-61
2022/04/15 02:12:52;;;;;;;8.93;4.50;;;19.30;75.30;;;;;;5055037;28;20028;-62
2022/04/15 02:15:18;;;;;;;7.93;5.20;;;19.20;75.30;;;;;;5082934;28;20498;-61
2022/04/15 02:17:43;;;;;;;7.57;4.40;;;19.20;75.40;;;;;;5065868;28;20092;-60
2022/04/15 02:20:11;;;;;;;8.63;4.85;;;19.20;75.40;;;;;;5083151;28;20038;-61
2022/04/15 02:22:37;;;;;;;8.63;4.47;;;19.20;75.40;;;;;;5064442;28;20425;-61
2022/04/15 02:25:03;;;;;;;9.13;4.95;;;19.20;75.40;;;;;;5082264;28;20107;-61
2022/04/15 02:27:28;;;;;;;9.82;5.18;;;19.20;75.50;;;;;;5081682;28;20040;-61
2022/04/15 02:29:54;;;;;;;6.20;4.75;;;19.20;75.50;;;;;;5072042;28;20447;-61
2022/04/15 02:32:19;;;;;;;7.25;5.45;;;19.10;75.60;;;;;;5053476;28;20530;-61
2022/04/15 02:34:45;;;;;;;9.10;7.03;;;19.10;75.50;;;;;;5080066;28;20513;-62
2022/04/15 02:37:10;;;;;;;11.57;6.80;;;19.10;75.60;;;;;;5080023;28;20040;-61
2022/04/15 02:39:36;;;;;;;10.13;6.38;;;19.10;75.60;;;;;;5079249;28;20025;-62
2022/04/15 02:42:01;;;;;;;8.80;5.75;;;19.10;75.60;;;;;;5082174;28;20086;-66
2022/04/15 02:44:28;;;;;;;9.68;5.75;;;19.10;75.60;;;;;;5064938;28;20544;-61
2022/04/15 02:46:54;;;;;;;7.95;5.93;;;19.10;75.60;;;;;;5049392;28;20016;-64
2022/04/15 02:49:19;;;;;;;8.57;5.85;;;19.10;75.70;;;;;;5062672;28;20028;-62
2022/04/15 02:51:45;;;;;;;8.73;5.72;;;19.00;75.80;;;;;;5046478;28;20055;-62
2022/04/15 02:54:10;;;;;;;9.80;5.72;;;19.00;75.80;;;;;;5081073;28;20068;-61
2022/04/15 02:56:36;;;;;;;7.88;5.82;;;19.00;75.80;;;;;;5082028;28;20052;-61
2022/04/15 02:59:01;;;;;;;11.52;5.60;;;19.00;75.90;;;;;;5081278;28;20108;-61
2022/04/15 03:01:27;;;;;;;7.20;5.63;;;19.00;75.90;;;;;;5062316;28;20142;-61
2022/04/15 03:03:52;;;;;;;9.35;6.00;;;19.00;75.90;;;;;;5082412;28;20493;-61
2022/04/15 03:06:18;;;;;;;8.98;5.40;;;18.90;76.00;;;;;;5082219;28;20358;-62
2022/04/15 03:08:43;;;;;;;8.00;5.10;;;18.90;76.10;;;;;;5082132;28;20028;-61
2022/04/15 03:11:09;;;;;;;6.90;5.05;;;18.90;76.00;;;;;;5080631;28;20101;-61
2022/04/15 03:13:35;;;;;;;6.93;5.68;;;18.90;76.00;;;;;;5063559;28;20020;-61
2022/04/15 03:16:00;;;;;;;6.85;5.15;;;18.90;76.10;;;;;;5062976;28;20572;-63
2022/04/15 03:18:26;;;;;;;5.25;4.70;;;18.90;76.10;;;;;;5062767;28;20424;-61
2022/04/15 03:20:51;;;;;;;11.70;5.38;;;18.80;76.00;;;;;;5062152;28;20523;-61
2022/04/15 03:23:19;;;;;;;7.50;5.10;;;18.80;76.20;;;;;;5080585;28;20385;-61
2022/04/15 03:25:46;;;;;;;7.65;5.10;;;18.80;76.20;;;;;;5081109;28;20447;-61
2022/04/15 03:28:12;;;;;;;7.93;5.30;;;18.80;76.30;;;;;;5081804;28;20342;-62
2022/04/15 03:30:38;;;;;;;7.63;5.38;;;18.80;76.30;;;;;;5081021;28;20012;-60
2022/04/15 03:33:03;;;;;;;7.75;5.30;;;18.70;76.30;;;;;;5081207;28;20492;-61
2022/04/15 03:35:29;;;;;;;14.80;5.68;;;18.70;76.40;;;;;;5062941;28;20040;-61
2022/04/15 03:37:54;;;;;;;7.82;5.45;;;18.70;76.40;;;;;;5080276;28;20491;-62
2022/04/15 03:40:20;;;;;;;10.25;5.35;;;18.70;76.40;;;;;;5085658;28;20495;-60
2022/04/15 03:42:46;;;;;;;7.55;5.40;;;18.70;76.40;;;;;;5069011;28;20498;-60
2022/04/15 03:45:14;;;;;;;9.15;5.70;;;18.70;76.50;;;;;;5088321;28;20085;-60
2022/04/15 03:47:42;;;;;;;9.38;6.15;;;18.60;76.50;;;;;;5071000;28;20087;-61
2022/04/15 03:50:12;;;;;;;12.98;5.93;;;18.60;76.60;;;;;;5052462;28;20292;-61
2022/04/15 03:52:38;;;;;;;10.20;5.72;;;18.60;76.70;;;;;;5071257;28;20044;-61
2022/04/15 03:55:05;;;;;;;9.82;5.63;;;18.60;76.70;;;;;;5071505;28;20417;-61
2022/04/15 03:57:31;;;;;;;8.35;5.47;;;18.60;76.80;;;;;;5090066;28;20085;-61
2022/04/15 03:59:56;;;;;;;8.52;5.40;;;18.60;76.80;;;;;;5086780;28;20049;-61
2022/04/15 04:02:22;;;;;;;8.68;5.10;;;18.60;76.80;;;;;;5069867;28;20091;-62
2022/04/15 04:04:47;;;;;;;7.93;5.10;;;18.50;76.80;;;;;;5051922;28;20504;-60
2022/04/15 04:07:15;;;;;;;8.52;5.40;;;18.50;77.00;;;;;;5068419;28;20032;-61
2022/04/15 04:09:41;;;;;;;9.10;5.53;;;18.50;77.10;;;;;;5067791;28;20514;-61
2022/04/15 04:12:06;;;;;;;7.90;5.30;;;18.40;77.00;;;;;;5085869;28;20115;-60
2022/04/15 04:14:32;;;;;;;8.88;5.10;;;18.50;77.00;;;;;;5069871;28;20103;-60
2022/04/15 04:16:57;;;;;;;7.55;5.22;;;18.50;77.00;;;;;;5070865;28;20067;-61
2022/04/15 04:19:23;;;;;;;8.27;5.07;;;18.40;76.90;;;;;;5089367;28;20054;-60
2022/04/15 04:21:48;;;;;;;8.10;5.20;;;18.40;77.00;;;;;;5085160;28;20103;-61
2022/04/15 04:24:14;;;;;;;8.23;5.03;;;18.40;77.00;;;;;;5068640;28;20530;-62
2022/04/15 04:26:39;;;;;;;8.95;4.75;;;18.40;77.20;;;;;;5068807;28;20043;-60
2022/04/15 04:29:05;;;;;;;6.85;5.00;;;18.40;77.30;;;;;;5087143;28;20052;-61
2022/04/15 04:31:30;;;;;;;11.50;6.05;;;18.40;77.30;;;;;;5080135;28;20087;-61
2022/04/15 04:33:56;;;;;;;10.18;5.57;;;18.40;77.90;;;;;;5031949;28;20102;-61
2022/04/15 04:36:21;;;;;;;12.98;5.53;;;18.40;77.20;;;;;;5066156;28;20182;-61
2022/04/15 04:38:47;;;;;;;9.82;5.95;;;18.30;77.20;;;;;;5069101;28;20476;-61
2022/04/15 04:41:12;;;;;;;9.25;6.20;;;18.30;77.20;;;;;;5065766;28;20098;-61
2022/04/15 04:43:38;;;;;;;24.35;7.63;;;18.30;77.30;;;;;;5050042;28;20033;-62
2022/04/15 04:46:03;;;;;;;111.53;15.10;;;18.30;77.40;;;;;;5048473;28;20603;-61
2022/04/15 04:48:29;;;;;;;95.30;14.05;;;18.30;77.40;;;;;;5016019;28;20622;-60
2022/04/15 04:50:54;;;;;;;54.40;11.05;;;18.30;77.60;;;;;;5062739;28;20041;-62
2022/04/15 04:53:20;;;;;;;60.72;11.40;;;18.30;77.60;;;;;;5045757;28;20032;-62
2022/04/15 04:55:45;;;;;;;67.40;12.57;;;18.30;77.80;;;;;;5063649;28;20033;-62
2022/04/15 04:58:11;;;;;;;121.32;14.07;;;18.20;77.70;;;;;;5064380;28;20028;-62
2022/04/15 05:00:36;;;;;;;135.50;15.52;;;18.20;77.60;;;;;;5063044;28;20104;-61
2022/04/15 05:03:02;;;;;;;126.10;15.23;;;18.20;77.70;;;;;;5065114;28;20456;-61
2022/04/15 05:05:28;;;;;;;143.23;16.08;;;18.20;77.60;;;;;;5045262;28;20104;-61
2022/04/15 05:07:53;;;;;;;161.20;18.42;;;18.20;77.70;;;;;;5046155;28;20020;-61
2022/04/15 05:10:19;;;;;;;163.25;15.95;;;18.10;77.70;;;;;;5061483;28;20036;-61
2022/04/15 05:12:45;;;;;;;117.28;16.65;;;18.10;77.60;;;;;;5063802;28;20107;-61
2022/04/15 05:15:11;;;;;;;150.80;15.95;;;18.30;77.70;;;;;;5044290;28;20047;-61
2022/04/15 05:17:37;;;;;;;112.75;14.77;;;18.10;77.60;;;;;;5045385;28;20108;-61
2022/04/15 05:20:04;;;;;;;127.68;15.07;;;18.20;77.70;;;;;;5061749;28;20505;-62
2022/04/15 05:22:29;;;;;;;144.27;17.67;;;18.10;77.60;;;;;;5046031;28;20376;-61
2022/04/15 05:24:55;;;;;;;161.70;19.27;;;18.20;77.50;;;;;;5064600;28;20036;-61
2022/04/15 05:27:20;;;;;;;212.95;19.88;;;18.20;77.50;;;;;;5046874;28;20068;-61
2022/04/15 05:29:46;;;;;;;140.70;16.38;;;18.20;77.50;;;;;;5045577;28;20116;-61
2022/04/15 05:32:11;;;;;;;148.88;16.00;;;18.10;77.40;;;;;;5074815;28;20115;-61
2022/04/15 05:34:37;;;;;;;168.00;18.15;;;18.20;77.50;;;;;;5064202;28;20035;-61
2022/04/15 05:37:03;;;;;;;117.68;14.93;;;18.20;77.40;;;;;;5082734;28;20035;-61
2022/04/15 05:39:28;;;;;;;126.65;15.18;;;18.20;77.50;;;;;;5082248;28;20027;-61
2022/04/15 05:41:54;;;;;;;95.43;12.90;;;18.20;77.60;;;;;;5082390;28;20051;-61
2022/04/15 05:44:19;;;;;;;72.60;11.85;;;18.20;77.70;;;;;;5083949;28;20028;-61
2022/04/15 05:46:45;;;;;;;89.70;12.88;;;18.10;77.90;;;;;;5066333;28;20411;-61
2022/04/15 05:49:14;;;;;;;89.75;13.80;;;18.10;78.00;;;;;;5083088;28;20142;-61
2022/04/15 05:51:45;;;;;;;74.78;10.82;;;18.10;78.00;;;;;;5048760;28;20119;-61
2022/04/15 05:54:11;;;;;;;80.07;11.73;;;18.10;77.90;;;;;;5083313;28;20300;-61
2022/04/15 05:56:36;;;;;;;57.85;9.98;;;18.10;77.90;;;;;;5080406;28;20100;-61
2022/04/15 05:59:02;;;;;;;83.68;11.50;;;18.10;77.80;;;;;;5048069;28;20082;-61
2022/04/15 06:01:28;;;;;;;72.15;10.52;;;18.10;77.80;;;;;;5047677;28;20644;-60
2022/04/15 06:03:53;;;;;;;66.50;11.05;;;18.00;77.80;;;;;;5078652;28;20279;-61
2022/04/15 06:06:19;;;;;;;57.83;9.65;;;18.00;77.80;;;;;;5063674;28;20035;-61
2022/04/15 06:08:44;;;;;;;72.93;9.88;;;18.10;78.50;;;;;;5065772;28;20020;-61
2022/04/15 06:11:10;;;;;;;59.97;9.75;;;18.10;77.80;;;;;;5083415;28;20069;-60
2022/04/15 06:13:37;;;;;;;59.83;9.40;;;18.00;77.70;;;;;;5082667;28;20135;-61
2022/04/15 06:16:05;;;;;;;51.20;8.50;;;18.10;77.70;;;;;;5065391;28;20170;-61
2022/04/15 06:18:34;;;;;;;66.80;9.70;;;18.10;77.70;;;;;;5064339;28;20097;-61
2022/04/15 06:21:00;;;;;;;63.70;11.00;;;18.10;77.90;;;;;;5063935;28;20051;-60
2022/04/15 06:23:26;;;;;;;53.30;8.35;;;18.10;77.80;;;;;;5046541;28;20427;-60
2022/04/15 06:25:51;;;;;;;38.55;7.60;;;18.10;77.80;;;;;;5063632;28;20028;-61
2022/04/15 06:28:17;;;;;;;50.83;7.60;;;18.10;77.60;;;;;;5063611;28;20044;-61
2022/04/15 06:30:42;;;;;;;47.25;8.85;;;18.10;77.60;;;;;;5065263;28;20016;-60
2022/04/15 06:33:09;;;;;;;48.22;7.53;;;18.10;77.80;;;;;;5083387;28;20060;-61
2022/04/15 06:35:35;;;;;;;39.08;7.00;;;18.10;77.70;;;;;;5064968;28;20391;-61
2022/04/15 06:38:00;;;;;;;40.00;7.05;;;18.10;77.70;;;;;;5065683;28;20115;-61
2022/04/15 06:40:26;;;;;;;32.22;6.85;;;18.10;77.60;;;;;;5063831;28;20130;-61
2022/04/15 06:42:52;;;;;;;28.98;6.85;;;18.10;77.60;;;;;;5082202;28;20028;-61
2022/04/15 06:45:17;;;;;;;30.27;6.63;;;18.10;77.60;;;;;;5046859;28;20036;-61
2022/04/15 06:47:43;;;;;;;28.88;6.32;;;18.00;77.60;;;;;;5082302;28;20043;-61
2022/04/15 06:50:08;;;;;;;26.33;6.07;;;18.10;77.60;;;;;;5081906;28;20031;-60
2022/04/15 06:52:34;;;;;;;27.73;6.18;;;17.90;77.50;;;;;;5064335;28;20020;-61
2022/04/15 06:54:59;;;;;;;30.60;6.78;;;18.10;77.50;;;;;;5084120;28;20081;-60
2022/04/15 06:57:25;;;;;;;27.00;6.03;;;18.10;77.50;;;;;;5083071;28;20166;-61
2022/04/15 06:59:50;;;;;;;34.10;7.18;;;18.10;77.40;;;;;;5031302;28;20467;-61
2022/04/15 07:02:16;;;;;;;24.75;5.85;;;18.10;77.50;;;;;;5081288;28;20039;-61
2022/04/15 07:04:42;;;;;;;22.02;5.60;;;18.10;77.40;;;;;;5080947;28;20020;-61
2022/04/15 07:07:07;;;;;;;25.83;6.13;;;18.10;77.20;;;;;;5044650;28;20040;-61
2022/04/15 07:09:33;;;;;;;22.02;6.22;;;18.10;77.80;;;;;;5081036;28;20055;-61
2022/04/15 07:11:58;;;;;;;26.13;6.15;;;18.10;77.10;;;;;;5081444;28;20028;-60
2022/04/15 07:14:24;;;;;;;19.30;5.40;;;18.20;77.10;;;;;;5080204;28;20053;-61
2022/04/15 07:16:49;;;;;;;18.38;5.18;;;18.20;76.90;;;;;;5081525;28;20024;-61
2022/04/15 07:19:15;;;;;;;23.77;5.57;;;18.20;76.90;;;;;;5064659;28;20123;-61
2022/04/15 07:21:44;;;;;;;12.80;4.50;;;18.20;76.90;;;;;;5064484;28;20028;-60
2022/04/15 07:24:09;;;;;;;16.42;4.90;;;18.20;76.80;;;;;;5081965;28;20119;-60
2022/04/15 07:26:35;;;;;;;17.02;5.20;;;18.20;76.70;;;;;;5079343;28;20214;-60
2022/04/15 07:29:00;;;;;;;20.58;4.82;;;18.30;76.70;;;;;;5079567;28;20107;-61
2022/04/15 07:31:26;;;;;;;14.98;4.70;;;18.30;76.60;;;;;;5061704;28;20145;-61
2022/04/15 07:33:52;;;;;;;17.30;5.25;;;18.30;76.70;;;;;;5080870;28;20578;-61
2022/04/15 07:39:06;;;;;;;15.55;4.38;;;18.30;76.70;;;;;;5064323;28;20111;-61
2022/04/15 07:41:32;;;;;;;10.52;4.88;;;18.30;76.70;;;;;;5062817;28;20020;-61
2022/04/15 07:43:58;;;;;;;11.55;4.45;;;18.30;76.60;;;;;;5077189;28;20312;-61
2022/04/15 07:46:23;;;;;;;18.35;5.40;;;18.30;76.70;;;;;;5060794;28;20036;-60
2022/04/15 07:48:49;;;;;;;13.05;5.10;;;18.40;76.70;;;;;;5080117;28;20076;-61
2022/04/15 07:51:14;;;;;;;15.88;5.43;;;18.40;76.70;;;;;;5079936;28;20042;-61
2022/04/15 07:53:40;;;;;;;16.65;4.63;;;18.40;76.80;;;;;;5060947;28;20399;-60
2022/04/15 07:56:05;;;;;;;15.43;5.20;;;18.50;76.90;;;;;;5062819;28;20040;-61
2022/04/15 07:58:31;;;;;;;10.13;5.28;;;18.40;76.80;;;;;;5062990;28;20247;-61
2022/04/15 08:00:59;;;;;;;12.10;5.40;;;18.50;76.90;;;;;;5062309;28;20397;-61
2022/04/15 08:03:28;;;;;;;13.55;5.28;;;18.50;77.00;;;;;;5062076;28;20024;-61
2022/04/15 08:05:54;;;;;;;14.68;5.32;;;18.50;77.00;;;;;;5060097;28;20498;-61
2022/04/15 08:08:19;;;;;;;12.80;5.15;;;18.50;77.00;;;;;;5060202;28;20032;-61
2022/04/15 08:10:45;;;;;;;11.60;4.85;;;18.50;77.00;;;;;;5043475;28;20032;-61
2022/04/15 08:13:10;;;;;;;12.88;5.18;;;18.60;77.00;;;;;;5080826;28;20580;-61
2022/04/15 08:15:36;;;;;;;16.65;5.30;;;18.60;77.10;;;;;;5077475;28;20064;-60
2022/04/15 08:18:02;;;;;;;11.20;5.40;;;18.60;77.20;;;;;;5078513;28;20043;-61
2022/04/15 08:20:27;;;;;;;12.57;4.35;;;18.60;77.20;;;;;;5060573;28;20456;-61
2022/04/15 08:22:53;;;;;;;8.63;4.63;;;18.70;77.20;;;;;;5062204;28;20090;-62
2022/04/15 08:25:19;;;;;;;12.55;4.68;;;18.70;77.20;;;;;;5080258;28;20044;-61
2022/04/15 08:27:44;;;;;;;8.70;4.32;;;18.70;77.10;;;;;;5064293;28;20077;-61
2022/04/15 08:30:10;;;;;;;6.60;4.70;;;18.70;77.10;;;;;;5083582;28;20042;-61
2022/04/15 08:32:35;;;;;;;7.38;4.22;;;18.80;77.10;;;;;;5084352;28;20488;-61
2022/04/15 08:35:05;;;;;;;9.32;4.30;;;18.80;77.10;;;;;;5065291;28;20028;-61
2022/04/15 08:37:30;;;;;;;11.18;5.28;;;18.80;77.10;;;;;;5048691;28;20145;-60
2022/04/15 08:39:56;;;;;;;19.85;5.47;;;18.90;77.20;;;;;;5082982;28;20033;-61
2022/04/15 08:42:21;;;;;;;13.27;5.28;;;18.90;77.30;;;;;;5063698;28;20427;-60
2022/04/15 08:44:51;;;;;;;12.77;5.63;;;18.90;77.50;;;;;;5079480;28;20028;-61
2022/04/15 08:47:16;;;;;;;15.63;5.85;;;19.00;77.60;;;;;;5065358;28;20107;-61
2022/04/15 08:49:42;;;;;;;18.33;5.53;;;19.00;77.50;;;;;;5032138;28;20115;-61
2022/04/15 08:52:11;;;;;;;18.17;6.00;;;19.00;77.60;;;;;;5082940;28;20066;-61
2022/04/15 08:54:37;;;;;;;21.77;6.20;;;19.00;77.60;;;;;;5061510;28;20020;-62
2022/04/15 08:57:03;;;;;;;19.55;5.95;;;19.00;77.60;;;;;;5062998;28;20038;-62
2022/04/15 08:59:28;;;;;;;15.80;6.18;;;19.10;77.60;;;;;;5060099;28;20403;-61
2022/04/15 09:01:54;;;;;;;19.00;6.25;;;19.10;77.60;;;;;;5062175;28;20040;-61
2022/04/15 09:04:19;;;;;;;32.55;6.38;;;19.20;77.60;;;;;;5060492;28;20036;-61
2022/04/15 09:06:45;;;;;;;36.50;8.13;;;19.20;77.60;;;;;;5061543;28;20028;-61
2022/04/15 09:09:12;;;;;;;30.63;7.72;;;19.30;77.70;;;;;;5061663;28;20081;-60
2022/04/15 09:11:39;;;;;;;52.65;8.75;;;19.30;77.70;;;;;;5057882;28;20044;-61
2022/04/15 09:14:12;;;;;;;64.32;10.02;;;19.30;77.90;;;;;;5077592;28;20070;-61
2022/04/15 09:16:42;;;;;;;67.38;10.75;;;19.30;78.10;;;;;;5061464;28;20021;-61
2022/04/15 09:19:08;;;;;;;57.58;10.45;;;19.40;78.20;;;;;;5062532;28;20181;-61
2022/04/15 09:21:33;;;;;;;61.35;10.65;;;19.40;78.20;;;;;;5063054;28;20138;-60
2022/04/15 09:23:59;;;;;;;61.17;10.23;;;19.40;78.20;;;;;;5078407;28;20052;-61
2022/04/15 09:26:25;;;;;;;60.90;10.45;;;19.50;78.20;;;;;;5055717;28;20622;-64
2022/04/15 09:28:52;;;;;;;59.20;10.25;;;19.50;78.20;;;;;;5059832;28;20044;-61
2022/04/15 09:31:18;;;;;;;55.08;10.10;;;19.50;78.20;;;;;;5042519;28;20907;-61
2022/04/15 09:33:57;;;;;;;52.50;10.05;;;19.60;78.20;;;;;;5057333;28;20039;-61
2022/04/15 09:36:27;;;;;;;65.90;10.80;;;19.60;78.20;;;;;;5063821;28;20065;-61
2022/04/15 09:38:56;;;;;;;54.38;10.57;;;19.60;78.20;;;;;;5046703;28;20035;-60
2022/04/15 09:41:23;;;;;;;54.05;11.82;;;19.60;78.10;;;;;;5081377;28;20012;-61
2022/04/15 09:43:55;;;;;;;70.25;11.70;;;19.70;78.90;;;;;;5061597;28;20028;-60
2022/04/15 09:46:21;;;;;;;56.63;10.48;;;19.70;78.20;;;;;;5058432;28;20040;-67
2022/04/15 09:49:04;;;;;;;63.60;11.18;;;19.80;78.20;;;;;;5080709;28;20088;-61
2022/04/15 09:51:52;;;;;;;45.58;10.45;;;19.80;78.10;;;;;;5068614;28;20051;-64
2022/04/15 09:54:24;;;;;;;65.28;10.60;;;19.90;78.00;;;;;;5045554;28;20035;-61
2022/04/15 09:56:51;;;;;;;54.83;11.15;;;19.90;78.00;;;;;;5058950;28;20028;-63
2022/04/15 09:59:16;;;;;;;70.55;12.25;;;19.90;78.00;;;;;;5058489;28;20031;-62
2022/04/15 10:01:46;;;;;;;91.90;13.35;;;20.00;78.10;;;;;;5038013;28;20059;-62
2022/04/15 10:04:13;;;;;;;86.38;15.15;;;20.00;78.10;;;;;;5046931;28;20133;-61
2022/04/15 10:06:39;;;;;;;109.63;17.27;;;20.00;78.20;;;;;;5044493;28;20032;-61
2022/04/15 10:09:06;;;;;;;139.45;20.17;;;20.10;78.30;;;;;;5060199;28;20028;-63
2022/04/15 10:11:32;;;;;;;107.93;16.17;;;20.10;78.50;;;;;;5055771;28;20043;-60
2022/04/15 10:13:58;;;;;;;117.63;16.20;;;20.20;78.40;;;;;;5055675;28;20028;-61
2022/04/15 10:16:23;;;;;;;136.63;17.88;;;20.20;78.50;;;;;;5028138;28;20050;-61
2022/04/15 10:18:49;;;;;;;109.00;17.17;;;20.20;78.50;;;;;;5043674;28;20048;-61
2022/04/15 10:21:14;;;;;;;117.82;17.13;;;20.20;78.60;;;;;;5023327;28;20127;-61
2022/04/15 10:23:40;;;;;;;111.45;16.52;;;20.20;78.60;;;;;;5063454;28;20032;-61
2022/04/15 10:26:06;;;;;;;95.53;16.58;;;20.20;78.70;;;;;;5080290;28;20020;-61
2022/04/15 10:28:45;;;;;;;103.28;16.45;;;20.20;78.80;;;;;;5082620;28;20024;-61
2022/04/15 10:31:12;;;;;;;103.57;16.88;;;20.20;78.80;;;;;;5078945;28;20111;-61
2022/04/15 10:33:39;;;;;;;111.55;16.65;;;20.30;78.90;;;;;;5049319;28;20032;-61
2022/04/15 10:36:23;;;;;;;106.57;17.35;;;20.30;78.90;;;;;;5029508;28;20036;-61
2022/04/15 10:39:04;;;;;;;77.85;15.90;;;20.30;78.80;;;;;;5078850;28;20062;-60
2022/04/15 10:41:41;;;;;;;102.47;16.08;;;20.40;78.80;;;;;;5056317;28;20032;-61
2022/04/15 10:44:10;;;;;;;92.82;17.63;;;20.40;78.80;;;;;;5061357;28;20440;-61
2022/04/15 10:46:36;;;;;;;124.28;18.05;;;20.40;78.70;;;;;;5074672;28;20062;-61
2022/04/15 10:49:18;;;;;;;101.68;17.63;;;20.40;78.60;;;;;;5077144;28;20024;-61
2022/04/15 10:51:44;;;;;;;95.63;17.08;;;20.50;78.60;;;;;;5060442;28;20035;-60
2022/04/15 10:54:41;;;;;;;93.93;17.02;;;20.50;78.50;;;;;;5076208;28;20016;-61
2022/04/15 10:57:14;;;;;;;87.70;14.80;;;20.60;78.40;;;;;;5072141;28;20024;-61
2022/04/15 11:02:50;;;;;;;100.95;15.32;;;20.60;78.00;;;;;;5062355;28;20073;-61
2022/04/15 11:05:31;;;;;;;111.38;15.38;;;20.70;77.70;;;;;;5078996;28;20066;-61
2022/04/15 11:08:04;;;;;;;124.28;15.75;;;20.70;77.60;;;;;;5077465;28;20051;-61
2022/04/15 11:10:42;;;;;;;101.80;17.33;;;20.70;77.40;;;;;;5056936;28;20024;-61
2022/04/15 11:13:23;;;;;;;97.68;15.93;;;20.80;77.40;;;;;;5072734;28;20036;-61
2022/04/15 11:16:04;;;;;;;117.82;15.35;;;20.80;77.00;;;;;;5057975;28;20040;-61
2022/04/15 11:18:59;;;;;;;121.60;18.48;;;20.80;76.80;;;;;;5061076;28;20032;-61
2022/04/15 11:21:36;;;;;;;142.30;19.38;;;20.90;76.60;;;;;;5061858;28;20028;-61
2022/04/15 11:24:06;;;;;;;146.80;19.60;;;20.90;76.50;;;;;;5055099;28;20107;-61
2022/04/15 11:26:32;;;;;;;117.38;17.83;;;20.90;76.50;;;;;;5070617;28;20111;-61
2022/04/15 11:28:59;;;;;;;122.15;17.60;;;20.90;76.40;;;;;;5059471;28;20077;-62
2022/04/15 11:31:25;;;;;;;109.07;15.82;;;21.00;76.20;;;;;;5079941;28;20060;-61
2022/04/15 11:33:52;;;;;;;133.00;17.95;;;21.00;76.00;;;;;;5059175;28;20183;-61
2022/04/15 11:36:20;;;;;;;145.35;17.75;;;21.00;75.80;;;;;;5064390;28;20103;-60
2022/04/15 11:38:46;;;;;;;139.30;17.77;;;21.00;75.60;;;;;;5075284;28;20036;-61
2022/04/15 11:41:19;;;;;;;150.52;18.17;;;21.00;75.80;;;;;;5057489;28;20032;-61
2022/04/15 11:44:01;;;;;;;126.85;17.48;;;21.10;75.70;;;;;;5078456;28;20044;-61
2022/04/15 11:46:36;;;;;;;159.80;19.77;;;21.10;75.60;;;;;;5060682;28;20448;-61
2022/04/15 11:49:02;;;;;;;197.98;23.55;;;21.20;75.60;;;;;;5077253;28;20032;-61
2022/04/15 11:51:28;;;;;;;166.00;18.65;;;21.20;75.50;;;;;;5074165;28;20043;-61
2022/04/15 11:53:54;;;;;;;139.35;18.23;;;21.30;75.60;;;;;;5077165;28;20097;-61
2022/04/15 11:56:24;;;;;;;143.93;18.38;;;21.30;75.30;;;;;;5039542;28;20032;-62
2022/04/15 11:58:49;;;;;;;145.68;19.55;;;21.30;74.90;;;;;;5044117;28;20044;-60
2022/04/15 12:01:25;;;;;;;168.63;20.63;;;21.30;74.90;;;;;;5080579;28;20032;-60
2022/04/15 12:03:51;;;;;;;161.20;20.63;;;21.30;74.70;;;;;;5051329;28;20115;-60
2022/04/15 12:06:16;;;;;;;160.20;21.30;;;21.40;74.50;;;;;;5066008;28;20107;-61
2022/04/15 12:08:42;;;;;;;154.07;18.70;;;21.40;74.30;;;;;;5082944;28;20024;-61
2022/04/15 12:11:09;;;;;;;151.20;17.55;;;21.40;74.20;;;;;;5080745;28;20028;-61
2022/04/15 12:13:34;;;;;;;141.65;18.65;;;21.50;74.10;;;;;;5077287;28;20131;-61
2022/04/15 12:16:00;;;;;;;157.60;18.85;;;21.50;73.80;;;;;;5079532;28;20131;-61
2022/04/15 12:18:26;;;;;;;132.20;18.85;;;21.60;73.60;;;;;;5066180;28;20031;-61
2022/04/15 12:20:51;;;;;;;134.80;17.02;;;21.70;73.20;;;;;;5063793;28;20143;-62
2022/04/15 12:23:17;;;;;;;144.27;19.40;;;21.70;73.00;;;;;;5063561;28;20016;-61
2022/04/15 12:31:31;;;;;;;187.63;22.80;;;22.00;72.20;;;;;;5080529;28;20122;-61
2022/04/15 12:33:58;;;;;;;152.63;19.15;;;22.10;72.10;;;;;;5047122;28;20085;-61
2022/04/15 12:36:23;;;;;;;173.40;20.35;;;22.10;71.80;;;;;;5029329;28;20081;-61
2022/04/15 12:39:18;;;;;;;156.27;19.10;;;22.20;71.50;;;;;;5078752;28;20418;-61
2022/04/15 12:41:46;;;;;;;137.43;18.33;;;22.20;71.00;;;;;;5056539;28;20043;-61
2022/04/15 12:44:27;;;;;;;149.98;18.67;;;22.30;70.90;;;;;;5079589;28;20055;-60